createdAt,value
2023-01-18T00:01:12.383Z,18.17
2023-01-18T00:06:12.350Z,19.50
2023-01-18T00:11:06.337Z,20.83
2023-01-18T00:16:26.988Z,18.35
2023-01-18T00:21:21.197Z,18.23
2023-01-18T00:26:15.243Z,18.15
2023-01-18T00:31:12.510Z,17.60
2023-01-18T00:36:05.470Z,16.73
2023-01-18T00:40:58.328Z,16.60
2023-01-18T00:45:52.116Z,17.70
2023-01-18T00:50:46.519Z,17.15
2023-01-18T00:55:39.530Z,17.67
2023-01-18T01:00:33.943Z,14.48
2023-01-18T01:05:47.012Z,15.13
2023-01-18T01:10:39.760Z,16.77
2023-01-18T01:15:51.174Z,15.23
2023-01-18T01:21:02.762Z,15.00
2023-01-18T01:26:08.366Z,14.38
2023-01-18T01:31:02.369Z,13.57
2023-01-18T01:36:02.833Z,14.63
2023-01-18T01:41:17.486Z,15.85
2023-01-18T01:46:22.120Z,13.98
2023-01-18T01:51:17.832Z,15.13
2023-01-18T01:56:10.478Z,14.57
2023-01-18T02:01:04.243Z,12.75
2023-01-18T02:06:04.435Z,13.77
2023-01-18T02:10:58.571Z,14.07
2023-01-18T02:16:14.793Z,14.45
2023-01-18T02:21:39.426Z,16.33
2023-01-18T02:26:34.697Z,14.48
2023-01-18T02:31:31.393Z,15.27
2023-01-18T02:36:30.378Z,15.23
2023-01-18T02:41:49.230Z,12.85
2023-01-18T02:46:42.029Z,13.50
2023-01-18T02:51:35.238Z,10.25
2023-01-18T02:56:50.047Z,12.52
2023-01-18T03:01:49.840Z,11.77
2023-01-18T03:06:45.833Z,10.10
2023-01-18T03:11:50.524Z,9.85
2023-01-18T03:16:58.597Z,11.02
2023-01-18T03:21:52.165Z,11.05
2023-01-18T03:26:48.622Z,10.27
2023-01-18T03:32:02.316Z,9.75
2023-01-18T03:36:58.178Z,10.00
2023-01-18T03:41:53.376Z,9.38
2023-01-18T03:46:46.344Z,10.23
2023-01-18T03:51:47.579Z,8.10
2023-01-18T03:56:59.979Z,7.07
2023-01-18T04:01:53.375Z,7.88
2023-01-18T04:06:46.362Z,9.57
2023-01-18T04:11:40.320Z,8.95
2023-01-18T04:16:33.924Z,9.90
2023-01-18T04:21:27.222Z,10.65
2023-01-18T04:26:21.068Z,9.48
2023-01-18T04:31:14.371Z,9.13
2023-01-18T04:36:09.104Z,8.85
2023-01-18T04:41:06.519Z,8.88
2023-01-18T04:45:59.280Z,10.52
2023-01-18T04:50:52.121Z,10.85
2023-01-18T04:55:45.849Z,10.20
2023-01-18T05:00:40.356Z,12.43
2023-01-18T05:05:33.672Z,11.48
2023-01-18T05:10:27.648Z,10.30
2023-01-18T05:15:20.435Z,11.30
2023-01-18T05:20:14.529Z,9.85
2023-01-18T05:25:08.595Z,10.07
2023-01-18T05:30:03.796Z,9.60
2023-01-18T05:34:58.377Z,10.85
2023-01-18T05:39:52.207Z,8.23
2023-01-18T05:44:45.776Z,10.35
2023-01-18T05:49:39.492Z,10.38
2023-01-18T05:54:34.324Z,9.85
2023-01-18T05:59:27.267Z,10.90
2023-01-18T06:04:20.262Z,10.60
2023-01-18T06:09:14.861Z,9.52
2023-01-18T06:14:07.996Z,9.45
2023-01-18T06:19:01.052Z,10.13
2023-01-18T06:23:55.114Z,10.95
2023-01-18T06:28:48.273Z,10.07
2023-01-18T06:33:42.444Z,10.95
2023-01-18T06:38:36.470Z,11.55
2023-01-18T06:43:30.116Z,10.85
2023-01-18T06:48:24.467Z,11.32
2023-01-18T06:53:18.860Z,11.30
2023-01-18T06:58:12.272Z,11.50
2023-01-18T07:03:05.749Z,10.95
2023-01-18T07:08:00.655Z,11.93
2023-01-18T07:12:54.152Z,11.60
2023-01-18T07:17:47.715Z,12.18
2023-01-18T07:22:41.103Z,12.85
2023-01-18T07:27:34.273Z,11.82
2023-01-18T07:32:28.251Z,12.50
2023-01-18T07:37:20.483Z,13.57
2023-01-18T07:42:13.866Z,12.63
2023-01-18T07:47:08.760Z,13.55
2023-01-18T07:52:02.336Z,12.52
2023-01-18T07:56:56.425Z,14.07
2023-01-18T08:01:49.946Z,13.27
2023-01-18T08:06:43.340Z,12.52
2023-01-18T08:11:37.305Z,12.45
2023-01-18T08:16:31.313Z,12.65
2023-01-18T08:21:24.979Z,13.80
2023-01-18T08:26:18.478Z,13.93
2023-01-18T08:31:15.618Z,13.05
2023-01-18T08:36:14.027Z,13.48
2023-01-18T08:41:07.178Z,15.60
2023-01-18T08:46:00.708Z,13.63
2023-01-18T08:50:53.643Z,13.18
2023-01-18T08:55:46.578Z,14.30
2023-01-18T09:00:40.045Z,14.27
2023-01-18T09:05:37.070Z,13.23
2023-01-18T09:10:29.464Z,14.57
2023-01-18T09:15:23.194Z,15.93
2023-01-18T09:20:18.842Z,18.08
2023-01-18T09:25:12.823Z,17.88
2023-01-18T09:30:09.465Z,16.85
2023-01-18T09:35:02.611Z,18.35
2023-01-18T09:39:56.363Z,16.30
2023-01-18T09:44:54.451Z,19.55
2023-01-18T09:50:00.599Z,18.58
2023-01-18T09:55:23.770Z,22.17
2023-01-18T10:00:23.334Z,19.20
2023-01-18T10:05:22.804Z,20.67
2023-01-18T10:10:19.352Z,17.17
2023-01-18T10:15:22.634Z,19.83
2023-01-18T10:20:47.620Z,17.55
2023-01-18T10:25:57.994Z,18.02
2023-01-18T10:31:22.905Z,18.20
2023-01-18T10:36:22.670Z,20.77
2023-01-18T10:41:20.995Z,21.20
2023-01-18T10:46:17.414Z,22.63
2023-01-18T10:51:40.841Z,22.10
2023-01-18T10:56:34.341Z,21.15
2023-01-18T11:01:30.519Z,22.77
2023-01-18T11:06:23.784Z,22.20
2023-01-18T11:11:49.168Z,21.98
2023-01-18T11:17:00.511Z,20.73
2023-01-18T11:21:54.604Z,22.48
2023-01-18T11:26:59.896Z,23.27
2023-01-18T11:31:53.046Z,23.00
2023-01-18T11:36:46.281Z,23.25
2023-01-18T11:41:39.215Z,23.60
2023-01-18T11:46:50.637Z,21.95
2023-01-18T11:51:56.110Z,23.33
2023-01-18T11:56:56.323Z,22.40
2023-01-18T12:01:49.338Z,23.75
2023-01-18T12:06:47.579Z,24.17
2023-01-18T12:12:18.398Z,23.07
2023-01-18T12:17:28.237Z,21.48
2023-01-18T12:23:20.365Z,23.27
2023-01-18T12:28:26.925Z,21.52
2023-01-18T12:33:53.361Z,26.25
2023-01-18T12:38:52.384Z,23.45
2023-01-18T12:44:04.304Z,23.38
2023-01-18T12:49:04.138Z,22.58
2023-01-18T12:54:03.108Z,25.48
2023-01-18T12:59:10.515Z,27.02
2023-01-18T13:04:09.532Z,27.98
2023-01-18T13:09:05.784Z,25.13
2023-01-18T13:14:26.648Z,25.42
2023-01-18T13:19:24.623Z,24.05
2023-01-18T13:24:42.997Z,24.57
2023-01-18T13:29:36.879Z,21.17
2023-01-18T13:34:47.620Z,24.23
2023-01-18T13:39:48.865Z,23.38
2023-01-18T13:44:41.155Z,22.40
2023-01-18T13:50:05.644Z,22.63
2023-01-18T13:55:02.610Z,24.02
2023-01-18T13:59:55.353Z,21.95
2023-01-18T14:05:04.493Z,21.60
2023-01-18T14:10:00.835Z,21.77
2023-01-18T14:15:06.148Z,21.98
2023-01-18T14:20:31.576Z,22.05
2023-01-18T14:25:51.882Z,23.00
2023-01-18T14:35:39.389Z,23.85
2023-01-18T14:40:33.132Z,22.67
2023-01-18T14:45:30.410Z,23.73
2023-01-18T14:50:25.205Z,25.00
2023-01-18T14:55:29.745Z,25.95
2023-01-18T15:00:26.164Z,26.63
2023-01-18T15:05:20.958Z,27.25
2023-01-18T15:10:36.266Z,27.50
2023-01-18T15:15:32.018Z,28.77
2023-01-18T15:20:25.412Z,26.25
2023-01-18T15:25:24.237Z,26.95
2023-01-18T15:30:18.749Z,30.07
2023-01-18T15:35:16.130Z,30.63
2023-01-18T15:40:15.402Z,27.90
2023-01-18T15:45:18.615Z,29.55
2023-01-18T15:50:19.557Z,28.85
2023-01-18T15:55:30.716Z,29.55
2023-01-18T16:00:38.587Z,30.08
2023-01-18T16:05:32.738Z,28.27
2023-01-18T16:10:30.796Z,29.77
2023-01-18T16:15:30.133Z,28.38
2023-01-18T16:20:23.892Z,29.60
2023-01-18T16:25:21.535Z,25.98
2023-01-18T16:30:23.163Z,27.35
2023-01-18T16:35:19.561Z,26.75
2023-01-18T16:40:21.664Z,26.40
2023-01-18T16:45:17.383Z,28.85
2023-01-18T16:50:19.470Z,28.90
2023-01-18T16:55:16.117Z,28.85
2023-01-18T17:00:19.081Z,27.17
2023-01-18T17:05:15.474Z,27.27
2023-01-18T17:11:02.328Z,28.60
2023-01-18T17:15:59.083Z,30.08
2023-01-18T17:20:55.005Z,28.00
2023-01-18T17:25:49.211Z,28.05
2023-01-18T17:30:44.126Z,29.63
2023-01-18T17:35:37.960Z,27.05
2023-01-18T17:40:39.988Z,25.52
2023-01-18T17:45:35.562Z,29.98
2023-01-18T17:50:30.187Z,31.45
2023-01-18T17:55:34.330Z,33.42
2023-01-18T18:00:28.229Z,34.97
2023-01-18T18:05:21.897Z,35.67
2023-01-18T18:10:16.617Z,34.65
2023-01-18T18:15:10.668Z,35.90
2023-01-18T18:20:04.788Z,43.15
2023-01-18T18:24:58.441Z,36.28
2023-01-18T18:29:52.681Z,38.08
2023-01-18T18:34:45.736Z,35.30
2023-01-18T18:39:39.981Z,34.83
2023-01-18T18:44:33.771Z,35.78
2023-01-18T18:49:26.795Z,65.05
2023-01-18T18:54:20.526Z,51.47
2023-01-18T18:59:14.608Z,35.70
2023-01-18T19:04:08.074Z,44.72
2023-01-18T19:09:02.088Z,43.08
2023-01-18T19:13:56.468Z,35.17
2023-01-18T19:18:50.153Z,40.17
2023-01-18T19:23:44.177Z,32.40
2023-01-18T19:28:37.764Z,35.78
2023-01-18T19:33:30.732Z,36.85
2023-01-18T19:38:25.380Z,36.20
2023-01-18T19:43:19.505Z,34.92
2023-01-18T19:48:13.366Z,34.83
2023-01-18T19:53:06.985Z,34.17
2023-01-18T19:58:02.638Z,92.60
2023-01-18T20:02:56.844Z,39.67
2023-01-18T20:07:50.979Z,34.80
2023-01-18T20:12:44.940Z,31.92
2023-01-18T20:17:39.070Z,32.55
2023-01-18T20:22:32.173Z,33.25
2023-01-18T20:27:26.766Z,31.35
2023-01-18T20:32:20.796Z,33.05
2023-01-18T20:37:15.227Z,34.75
2023-01-18T20:42:09.165Z,35.03
2023-01-18T20:47:03.180Z,33.38
2023-01-18T20:51:56.716Z,35.25
2023-01-18T20:56:51.297Z,32.40
2023-01-18T21:01:46.454Z,34.53
2023-01-18T21:06:39.971Z,34.70
2023-01-18T21:11:34.243Z,34.22
2023-01-18T21:16:28.025Z,35.80
2023-01-18T21:21:21.836Z,33.20
2023-01-18T21:26:15.548Z,35.10
2023-01-18T21:31:09.156Z,38.17
2023-01-18T21:36:09.266Z,37.28
2023-01-18T21:41:21.976Z,38.40
2023-01-18T21:46:15.735Z,36.80
2023-01-18T21:51:28.345Z,37.17
2023-01-18T21:56:23.051Z,38.17
2023-01-18T22:01:19.454Z,40.03
2023-01-18T22:06:13.491Z,39.47
2023-01-18T22:11:07.406Z,36.95
2023-01-18T22:16:04.491Z,39.67
2023-01-18T22:20:58.160Z,38.70
2023-01-18T22:25:56.043Z,37.30
2023-01-18T22:30:49.155Z,35.15
2023-01-18T22:35:42.707Z,33.90
2023-01-18T22:40:36.590Z,36.30
2023-01-18T22:45:30.605Z,31.27
2023-01-18T22:50:24.064Z,33.97
2023-01-18T22:55:18.502Z,33.38
2023-01-18T23:00:13.795Z,33.60
2023-01-18T23:05:09.540Z,33.65
2023-01-18T23:10:03.661Z,34.65
2023-01-18T23:15:16.369Z,34.58
2023-01-18T23:20:29.891Z,34.10
2023-01-18T23:25:23.507Z,32.30
2023-01-18T23:30:18.105Z,33.28
2023-01-18T23:35:12.013Z,32.72
2023-01-18T23:40:26.795Z,31.98
2023-01-18T23:45:38.281Z,34.10
2023-01-18T23:50:49.379Z,35.17
2023-01-18T23:55:42.888Z,31.95
